Date,TemperatureHighF,TemperatureAvgF,TemperatureLowF,DewpointHighF,DewpointAvgF,DewpointLowF,HumidityHigh,HumidityAvg,HumidityLow,PressureMaxIn,PressureMinIn,WindSpeedMaxMPH,WindSpeedAvgMPH,GustSpeedMaxMPH,PrecipitationSumIn
2013-12-1,49,38,30,36,30,24,79,73,59,29.74,29.60,10,2,10,0.00
2013-12-2,44,34,26,32,26,19,85,73,54,29.62,29.52,7,1,7,0.00
2013-12-3,40,36,26,36,31,19,84,80,75,29.54,29.47,7,1,8,0.00
2013-12-4,53,46,39,49,42,35,88,84,79,29.53,29.28,12,2,12,0.00
2013-12-5,59,44,33,54,36,23,86,73,63,29.78,29.27,22,7,22,0.00
2013-12-6,33,29,23,24,19,13,71,65,58,29.94,29.71,8,2,8,0.00
2013-12-7,31,22,16,14,10,7,76,62,45,30.09,29.88,10,2,10,0.00
2013-12-8,31,23,14,28,16,6,88,76,67,30.03,29.31,10,3,10,0.00
2013-12-9,31,27,20,28,22,12,89,79,69,29.40,29.16,20,8,20,0.00
2013-12-10,24,19,13,12,9,4,76,66,49,29.35,29.00,20,7,20,0.00
2013-12-11,26,19,8,18,11,0,82,72,64,29.53,29.17,13,4,13,0.00
2013-12-12,16,14,7,9,4,-1,80,64,55,30.08,29.37,16,6,17,0.00
2013-12-13,32,24,17,22,16,9,75,71,64,30.01,29.90,11,3,11,0.00
2013-12-14,24,22,20,20,17,15,86,83,72,30.00,29.53,14,6,14,0.00
2013-12-15,26,21,15,21,16,10,85,82,74,29.78,29.53,18,6,18,0.00
2013-12-16,23,14,4,18,8,-1,84,76,66,29.92,29.72,10,1,10,0.00
2013-12-17,26,22,15,21,17,10,86,82,79,29.75,29.62,14,4,14,0.00
2013-12-18,30,24,17,22,18,13,88,78,66,29.86,29.66,14,5,14,0.00
2013-12-19,42,36,26,35,28,17,81,72,64,29.73,29.61,13,3,13,0.00
2013-12-20,42,38,36,40,35,31,91,89,81,29.64,29.45,7,1,7,0.00
2013-12-21,37,35,34,35,33,31,91,90,89,29.60,29.36,14,3,14,0.00
2013-12-22,40,36,34,37,33,31,92,87,80,29.70,29.25,21,6,22,0.00
2013-12-23,36,31,22,31,24,14,88,77,65,30.03,29.69,13,5,16,0.00
2013-12-24,24,18,12,14,9,5,80,68,52,30.27,30.02,13,4,13,0.00
2013-12-25,26,21,12,22,16,5,84,79,72,30.22,29.85,16,4,16,0.00
2013-12-26,29,27,25,24,21,18,88,79,68,30.02,29.77,14,5,14,0.00
2013-12-27,42,35,28,33,28,22,80,77,70,30.04,29.82,12,3,12,0.00
2013-12-28,49,40,35,37,33,30,81,74,63,29.86,29.64,18,6,18,0.00
2013-12-29,46,37,25,35,29,17,84,73,62,29.72,29.42,15,4,15,0.00
2013-12-30,25,21,17,18,11,5,77,65,55,29.99,29.71,12,3,13,0.00
2013-12-31,22,18,16,16,12,9,82,74,65,30.04,29.77,16,6,16,0.00